Downstream station:
SHEF ID: FRGO2 Cimarron River near Forgan, OK
STATION TYPE:
Regulating: Stage = 5.00, Flow = 515
PRECIP STAGE RIV-FLOW BAT-LOAD
in ft cfs volt
Ccp-Rev Ccp-Rev Ccp-Rev Ccp-Rev
(US/Central)
02/04 00:00 0.00 2.09 22 12.57
02/04 01:00 0.00 2.09 22 12.57
02/04 02:00 0.00 2.02 20 12.57
02/04 03:00 0.00 1.99 19 12.49
02/04 04:00 0.00 2.03 21 12.49
02/04 05:00 0.00 1.97 19 12.41
02/04 06:00 0.00 1.91 18 12.41
02/04 07:00 0.00 1.86 16 ----
02/04 08:00 0.00 1.84 16 12.41
02/04 09:00 0.00 1.91 18 12.41
02/04 10:00 0.00 2.00 20 12.57
02/04 11:00 0.00 2.12 23 13.21
02/04 12:00 0.00 1.99 19 13.29
02/04 13:00 0.00 1.99 19 13.29
02/04 14:00 0.00 2.03 21 13.21
02/04 15:00 0.00 2.07 22 13.21
02/04 16:00 0.00 2.09 22 13.13
02/04 17:00 0.00 2.09 22 13.13
02/04 18:00 0.00 2.06 21 12.97
02/04 19:00 0.00 2.01 20 12.81
02/04 20:00 0.00 1.97 19 12.73
02/04 21:00 0.00 1.95 19 12.73
02/04 22:00 0.00 1.93 18 12.73
02/04 23:00 0.00 1.90 17 12.65